Airfield :
LOGIN :

Register | Disclaimer

   EN    FR    IT 

 










Legend :    VFR   Marginal VFR   IFR   Intensive IFR   Very Intensive IFR
Visi :
Ceiling :
>= 8 km
>= 3000ft
5 to 8 km
1000 to 3000 ft
1500m to 5 km
500 to 1000 ft
800 to 1500m
200 to 500 ft
< 800m
< 200 ft
Symbols :   Thunderstorms  Fog  Heavy snow  Heavy precipitations  Wind > 20 kt
SIGMETs :     Misc.  Thunderstorms  Icing  Turbulence  Mountain Waves  Volcanic Ashes






- Airport Elevation : 407 ft


EGDM - MoD Boscombe Down Amesbury

CURRENT METAR :
  • 070750Z 01016KT 9999 FEW015 BKN022 16/12 Q1028 BECMG SCT028 RMK WHT BECMG BLU

EXPIRED METARs :
  • 070720Z 36015KT 9999 FEW020 BKN024 17/12 Q1028 BECMG SCT028 RMK WHT BECMG BLU
  • 070650Z 35011KT 9999 FEW020 OVC023 17/12 Q1028 BECMG BKN028 RMK WHT BECMG BLU
  • 070550Z 34009KT 9999 FEW020 BKN023 17/13 Q1027 RMK WHT

TAF TAF EGDM
Valid from the 07 at 07:00 until the 07 at 15:00 UTC


070557Z 0707/0715 35010KT 9999 BKN024
BECMG 0707/0710 SCT028



MET'MAP, your aeronautical weather chart ! - Copyright ORBIFLY December 2007 - Disclaimer

ORBIFLY MET'MAP TEAM :

Programming & Development : Alexandra Zaïnal
Original concept : Baudouin d'Aumeries
Technical & hardware support : Manuel Goepfert
Assistance : Marc-Olivier Méhu




SOURCES & CREDITS :

   NOAA